createdAt,value
2022-10-23T00:01:13.282Z,20.60
2022-10-23T00:03:41.070Z,20.60
2022-10-23T00:06:09.604Z,20.60
2022-10-23T00:08:37.537Z,20.60
2022-10-23T00:11:08.591Z,20.60
2022-10-23T00:13:38.098Z,20.60
2022-10-23T00:16:06.636Z,20.50
2022-10-23T00:18:34.719Z,20.60
2022-10-23T00:21:02.741Z,20.60
2022-10-23T00:23:30.702Z,20.60
2022-10-23T00:25:58.607Z,20.60
2022-10-23T00:28:26.536Z,20.50
2022-10-23T00:30:55.700Z,20.40
2022-10-23T00:33:23.470Z,20.50
2022-10-23T00:35:51.232Z,20.40
2022-10-23T00:38:19.012Z,20.40
2022-10-23T00:40:47.156Z,20.40
2022-10-23T00:43:19.637Z,20.40
2022-10-23T00:45:47.498Z,20.40
2022-10-23T00:48:17.364Z,20.40
2022-10-23T00:50:47.303Z,20.30
2022-10-23T00:53:17.730Z,20.30
2022-10-23T00:55:46.980Z,20.50
2022-10-23T00:58:15.632Z,20.60
2022-10-23T01:00:47.450Z,20.60
2022-10-23T01:03:18.603Z,20.70
2022-10-23T01:05:51.047Z,20.60
2022-10-23T01:08:26.645Z,20.60
2022-10-23T01:11:01.242Z,20.50
2022-10-23T01:13:38.211Z,20.50
2022-10-23T01:16:12.474Z,20.40
2022-10-23T01:18:47.341Z,20.20
2022-10-23T01:21:22.837Z,20.20
2022-10-23T01:24:08.820Z,20.20
2022-10-23T01:26:56.168Z,20.20
2022-10-23T01:29:32.447Z,19.90
2022-10-23T01:32:05.169Z,20.00
2022-10-23T01:34:41.329Z,19.70
2022-10-23T01:37:12.655Z,20.00
2022-10-23T01:39:47.727Z,19.90
2022-10-23T01:42:20.023Z,19.90
2022-10-23T01:44:52.542Z,20.00
2022-10-23T01:47:27.874Z,20.00
2022-10-23T01:50:06.269Z,19.70
2022-10-23T01:52:34.728Z,19.90
2022-10-23T01:55:06.665Z,19.80
2022-10-23T01:57:38.333Z,19.90
2022-10-23T02:00:10.935Z,19.90
2022-10-23T02:02:53.405Z,19.70
2022-10-23T02:05:27.117Z,19.90
2022-10-23T02:07:56.775Z,20.00
2022-10-23T02:10:31.504Z,20.00
2022-10-23T02:13:06.444Z,20.00
2022-10-23T02:15:40.457Z,20.00
2022-10-23T02:18:16.244Z,20.00
2022-10-23T02:20:48.373Z,20.10
2022-10-23T02:23:23.468Z,20.00
2022-10-23T02:25:55.911Z,20.00
2022-10-23T02:28:27.852Z,20.10
2022-10-23T02:31:02.924Z,20.00
2022-10-23T02:33:33.714Z,19.90
2022-10-23T02:36:01.533Z,19.90
2022-10-23T02:38:36.435Z,19.90
2022-10-23T02:41:25.937Z,19.90
2022-10-23T02:44:05.123Z,19.80
2022-10-23T02:46:43.699Z,19.90
2022-10-23T02:49:18.162Z,19.90
2022-10-23T02:51:58.244Z,19.90
2022-10-23T02:54:39.035Z,19.80
2022-10-23T02:57:16.866Z,19.80
2022-10-23T02:59:52.516Z,19.80
2022-10-23T03:02:25.896Z,19.80
2022-10-23T03:04:55.310Z,19.80
2022-10-23T03:07:23.422Z,19.80
2022-10-23T03:09:51.461Z,19.80
2022-10-23T03:12:19.232Z,19.90
2022-10-23T03:14:48.133Z,19.80
2022-10-23T03:17:16.164Z,19.90
2022-10-23T03:19:48.804Z,19.80
2022-10-23T03:22:16.583Z,19.80
2022-10-23T03:24:44.465Z,19.80
2022-10-23T03:27:12.266Z,19.80
2022-10-23T03:29:40.096Z,19.70
2022-10-23T03:32:07.985Z,19.50
2022-10-23T03:34:36.438Z,19.60
2022-10-23T03:37:07.123Z,19.70
2022-10-23T03:39:34.898Z,19.80
2022-10-23T03:42:02.737Z,20.00
2022-10-23T03:44:31.959Z,20.00
2022-10-23T03:46:59.771Z,20.00
2022-10-23T03:49:28.136Z,19.90
2022-10-23T03:52:02.658Z,19.90
2022-10-23T03:54:33.681Z,20.00
2022-10-23T03:57:01.977Z,20.00
2022-10-23T03:59:30.455Z,20.00
2022-10-23T04:01:59.732Z,20.10
2022-10-23T04:04:28.095Z,20.10
2022-10-23T04:06:55.902Z,20.10
2022-10-23T04:09:23.955Z,20.00
2022-10-23T04:11:53.121Z,20.00
2022-10-23T04:14:20.932Z,20.10
2022-10-23T04:16:48.724Z,20.10
2022-10-23T04:19:17.388Z,20.10
2022-10-23T04:21:45.251Z,20.10
2022-10-23T04:24:13.202Z,20.10
2022-10-23T04:26:41.048Z,20.10
2022-10-23T04:29:13.256Z,20.10
2022-10-23T04:31:41.369Z,20.00
2022-10-23T04:34:09.151Z,20.10
2022-10-23T04:36:37.179Z,20.10
2022-10-23T04:39:10.771Z,20.10
2022-10-23T04:41:38.810Z,20.10
2022-10-23T04:44:06.885Z,20.10
2022-10-23T04:46:39.595Z,20.10
2022-10-23T04:49:07.594Z,20.20
2022-10-23T04:52:01.072Z,20.00
2022-10-23T04:54:47.425Z,19.10
2022-10-23T04:57:32.539Z,18.50
2022-10-23T05:00:03.345Z,18.20
2022-10-23T05:02:39.278Z,18.10
2022-10-23T05:05:08.596Z,18.00
2022-10-23T05:07:36.909Z,18.00
2022-10-23T05:10:15.069Z,17.90
2022-10-23T05:12:54.611Z,17.80
2022-10-23T05:15:22.412Z,17.80
2022-10-23T05:17:57.843Z,17.70
2022-10-23T05:20:29.620Z,17.60
2022-10-23T05:23:00.456Z,17.80
2022-10-23T05:25:30.751Z,17.80
2022-10-23T05:28:06.058Z,17.60
2022-10-23T05:30:34.579Z,17.30
2022-10-23T05:33:05.215Z,17.20
2022-10-23T05:35:41.859Z,17.10
2022-10-23T05:38:10.247Z,17.00
2022-10-23T05:43:16.762Z,17.30
2022-10-23T05:45:51.165Z,17.40
2022-10-23T05:48:40.605Z,17.50
2022-10-23T05:51:30.009Z,17.50
2022-10-23T05:54:07.701Z,17.60
2022-10-23T05:56:53.856Z,17.40
2022-10-23T05:59:32.527Z,17.50
2022-10-23T06:02:21.567Z,17.60
2022-10-23T06:04:56.026Z,17.50
2022-10-23T06:07:42.808Z,17.40
2022-10-23T06:10:12.149Z,17.30
2022-10-23T06:12:46.207Z,17.10
2022-10-23T06:15:17.545Z,17.00
2022-10-23T06:18:06.524Z,17.10
2022-10-23T06:20:39.922Z,17.10
2022-10-23T06:23:16.529Z,17.10
2022-10-23T06:26:13.604Z,17.00
2022-10-23T06:29:07.646Z,17.00
2022-10-23T06:31:35.556Z,16.90
2022-10-23T06:34:05.948Z,17.00
2022-10-23T06:36:35.511Z,17.10
2022-10-23T06:39:14.961Z,17.10
2022-10-23T06:41:54.671Z,17.00
2022-10-23T06:44:41.263Z,16.80
2022-10-23T06:47:10.862Z,16.80
2022-10-23T06:50:17.395Z,16.90
2022-10-23T06:52:48.055Z,16.80
2022-10-23T06:55:18.908Z,16.90
2022-10-23T06:57:47.650Z,16.80
2022-10-23T07:00:16.079Z,16.90
2022-10-23T07:02:50.846Z,16.90
2022-10-23T07:05:18.962Z,17.00
2022-10-23T07:07:48.380Z,17.00
2022-10-23T07:10:22.606Z,17.00
2022-10-23T07:13:00.610Z,17.10
2022-10-23T07:15:48.832Z,17.10
2022-10-23T07:18:23.289Z,17.20
2022-10-23T07:21:13.938Z,17.10
2022-10-23T07:23:43.174Z,17.20
2022-10-23T07:26:15.159Z,17.10
2022-10-23T07:28:44.667Z,17.10
2022-10-23T07:31:14.081Z,17.10
2022-10-23T07:34:00.789Z,17.00
2022-10-23T07:36:28.640Z,17.00
2022-10-23T07:38:57.802Z,17.10
2022-10-23T07:41:26.188Z,17.10
2022-10-23T07:43:54.023Z,16.90
2022-10-23T07:46:21.855Z,17.00
2022-10-23T07:48:49.731Z,17.00
2022-10-23T07:51:17.922Z,17.00
2022-10-23T07:53:48.759Z,17.10
2022-10-23T07:56:34.392Z,17.10
2022-10-23T07:59:15.292Z,17.20
2022-10-23T08:01:51.459Z,17.20
2022-10-23T08:04:22.548Z,17.20
2022-10-23T08:07:03.101Z,17.20
2022-10-23T08:09:37.986Z,17.20
2022-10-23T08:12:07.660Z,17.20
2022-10-23T08:14:35.472Z,17.20
2022-10-23T08:17:04.733Z,17.20
2022-10-23T08:20:01.785Z,17.20
2022-10-23T08:22:37.109Z,17.30
2022-10-23T08:25:05.757Z,17.30
2022-10-23T08:27:34.884Z,17.30
2022-10-23T08:30:02.776Z,17.40
2022-10-23T08:32:31.201Z,17.40
2022-10-23T08:35:00.555Z,17.30
2022-10-23T08:37:31.473Z,17.30
2022-10-23T08:39:59.354Z,17.30
2022-10-23T08:43:02.251Z,17.30
2022-10-23T08:45:34.743Z,17.30
2022-10-23T08:48:33.990Z,17.30
2022-10-23T08:51:35.863Z,17.30
2022-10-23T08:54:09.147Z,17.30
2022-10-23T08:56:40.427Z,17.30
2022-10-23T08:59:20.462Z,17.40
2022-10-23T09:01:53.162Z,17.60
2022-10-23T09:04:21.077Z,17.90
2022-10-23T09:06:56.997Z,18.40
2022-10-23T09:09:47.723Z,18.80
2022-10-23T09:12:17.598Z,19.00
2022-10-23T09:15:03.464Z,18.40
2022-10-23T09:17:33.002Z,18.20
2022-10-23T09:20:11.663Z,18.00
2022-10-23T09:22:40.139Z,18.00
2022-10-23T09:25:11.225Z,18.10
2022-10-23T09:27:39.191Z,18.10
2022-10-23T09:30:10.001Z,18.20
2022-10-23T09:32:39.348Z,18.20
2022-10-23T09:35:21.533Z,18.30
2022-10-23T09:37:53.034Z,18.40
2022-10-23T09:40:33.305Z,18.50
2022-10-23T09:43:03.768Z,18.50
2022-10-23T09:45:35.194Z,18.50
2022-10-23T09:48:13.281Z,18.50
2022-10-23T09:50:48.996Z,18.50
2022-10-23T09:53:19.719Z,18.50
2022-10-23T09:55:53.936Z,18.50
2022-10-23T09:58:25.823Z,18.50
2022-10-23T10:00:55.491Z,18.50
2022-10-23T10:03:39.310Z,18.60
2022-10-23T10:06:23.778Z,18.70
2022-10-23T10:08:54.741Z,18.80
2022-10-23T10:11:28.948Z,18.80
2022-10-23T10:14:30.300Z,18.70
2022-10-23T10:17:04.510Z,18.80
2022-10-23T10:19:48.320Z,18.70
2022-10-23T10:22:26.869Z,18.80
2022-10-23T10:25:01.223Z,18.80
2022-10-23T10:27:42.544Z,18.80
2022-10-23T10:30:16.646Z,18.90
2022-10-23T10:32:51.114Z,18.90
2022-10-23T10:35:35.016Z,19.00
2022-10-23T10:38:19.587Z,19.00
2022-10-23T10:41:01.170Z,19.00
2022-10-23T10:43:41.347Z,19.00
2022-10-23T10:46:17.598Z,19.10
2022-10-23T10:48:50.684Z,19.10
2022-10-23T10:51:52.384Z,19.10
2022-10-23T10:54:37.651Z,19.10
2022-10-23T10:57:13.359Z,19.10
2022-10-23T10:59:45.148Z,19.00
2022-10-23T11:02:26.714Z,19.00
2022-10-23T11:05:01.470Z,19.10
2022-10-23T11:07:35.908Z,19.00
2022-10-23T11:10:14.226Z,19.00
2022-10-23T11:12:43.835Z,19.00
2022-10-23T11:15:16.892Z,19.00
2022-10-23T11:17:49.330Z,19.00
2022-10-23T11:20:39.855Z,19.00
2022-10-23T11:23:24.399Z,19.00
2022-10-23T11:26:04.140Z,19.00
2022-10-23T11:28:48.224Z,19.00
2022-10-23T11:31:26.284Z,19.00
2022-10-23T11:34:24.263Z,19.10
2022-10-23T11:36:55.286Z,19.00
2022-10-23T11:39:26.991Z,19.00
2022-10-23T11:42:00.469Z,19.00
2022-10-23T11:44:41.331Z,19.00
2022-10-23T11:47:28.586Z,19.00
2022-10-23T11:50:17.919Z,19.00
2022-10-23T11:53:12.802Z,19.00
2022-10-23T11:55:42.012Z,19.00
2022-10-23T11:58:22.223Z,19.10
2022-10-23T12:00:56.988Z,19.10
2022-10-23T12:03:30.516Z,19.00
2022-10-23T12:06:01.478Z,19.10
2022-10-23T12:08:33.395Z,19.00
2022-10-23T12:11:01.299Z,19.00
2022-10-23T12:13:46.802Z,19.00
2022-10-23T12:16:14.850Z,19.10
2022-10-23T12:18:47.750Z,19.10
2022-10-23T12:21:20.087Z,19.20
2022-10-23T12:24:13.437Z,19.20
2022-10-23T12:27:07.124Z,19.20
2022-10-23T12:29:59.350Z,19.20
2022-10-23T12:32:39.682Z,19.20
2022-10-23T12:35:22.117Z,19.20
2022-10-23T12:38:05.766Z,19.30
2022-10-23T12:40:34.965Z,19.30
2022-10-23T12:43:02.761Z,19.30
2022-10-23T12:45:33.800Z,19.30
2022-10-23T12:48:01.564Z,19.30
2022-10-23T12:50:30.850Z,19.20
2022-10-23T12:53:01.551Z,19.30
2022-10-23T12:55:35.172Z,19.30
2022-10-23T12:58:05.186Z,19.30
2022-10-23T13:00:32.967Z,19.30
2022-10-23T13:03:02.218Z,19.30
2022-10-23T13:05:31.157Z,19.50
2022-10-23T13:08:01.116Z,19.50
2022-10-23T13:10:42.548Z,19.40
2022-10-23T13:13:14.863Z,19.40
2022-10-23T13:15:44.676Z,19.50
2022-10-23T13:18:14.358Z,19.50
2022-10-23T13:20:44.443Z,19.60
2022-10-23T13:23:18.484Z,19.60
2022-10-23T13:25:55.656Z,19.60
2022-10-23T13:28:26.799Z,19.60
2022-10-23T13:31:25.390Z,19.60
2022-10-23T13:34:06.406Z,19.70
2022-10-23T13:36:39.369Z,19.70
2022-10-23T13:39:15.785Z,19.70
2022-10-23T13:41:45.536Z,19.70
2022-10-23T13:44:16.463Z,19.70
2022-10-23T13:46:45.115Z,19.80
2022-10-23T13:49:13.052Z,19.80
2022-10-23T13:51:44.868Z,19.80
2022-10-23T13:54:15.910Z,19.80
2022-10-23T13:56:43.848Z,19.80
2022-10-23T13:59:14.190Z,19.80
2022-10-23T14:01:43.323Z,19.80
2022-10-23T14:04:12.145Z,19.80
2022-10-23T14:06:40.407Z,19.80
2022-10-23T14:09:11.445Z,19.80
2022-10-23T14:11:39.786Z,19.80
2022-10-23T14:14:08.024Z,19.80
2022-10-23T14:16:37.349Z,19.70
2022-10-23T14:19:05.176Z,19.80
2022-10-23T14:21:32.966Z,19.80
2022-10-23T14:24:00.808Z,19.80
2022-10-23T14:26:30.191Z,19.80
2022-10-23T14:29:02.377Z,19.70
2022-10-23T14:31:34.795Z,19.80
2022-10-23T14:34:03.905Z,19.80
2022-10-23T14:36:38.873Z,19.70
2022-10-23T14:39:17.949Z,19.70
2022-10-23T14:41:45.903Z,19.70
2022-10-23T14:44:13.795Z,19.70
2022-10-23T14:46:41.612Z,19.60
2022-10-23T14:49:10.748Z,19.60
2022-10-23T14:51:38.635Z,19.60
2022-10-23T14:54:08.169Z,19.50
2022-10-23T14:56:39.331Z,19.50
2022-10-23T14:59:07.923Z,19.40
2022-10-23T15:01:42.261Z,19.50
2022-10-23T15:04:14.810Z,19.50
2022-10-23T15:06:43.126Z,19.50
2022-10-23T15:09:11.224Z,19.40
2022-10-23T15:11:39.106Z,19.40
2022-10-23T15:14:06.902Z,19.40
2022-10-23T15:16:40.942Z,19.50
2022-10-23T15:19:10.954Z,19.50
2022-10-23T15:21:42.847Z,19.50
2022-10-23T15:24:10.618Z,19.60
2022-10-23T15:26:38.563Z,19.50
2022-10-23T15:29:06.551Z,19.50
2022-10-23T15:31:46.931Z,19.40
2022-10-23T15:34:17.283Z,19.50
2022-10-23T15:36:48.008Z,19.40
2022-10-23T15:39:18.662Z,19.40
2022-10-23T15:41:47.141Z,19.30
2022-10-23T15:44:16.523Z,19.30
2022-10-23T15:46:44.736Z,19.30
2022-10-23T15:49:12.683Z,19.30
2022-10-23T15:51:41.157Z,19.30
2022-10-23T15:54:13.076Z,19.30
2022-10-23T15:56:40.858Z,19.30
2022-10-23T15:59:08.727Z,19.30
2022-10-23T16:01:36.688Z,19.20
2022-10-23T16:04:04.799Z,19.30
2022-10-23T16:06:32.610Z,19.30
2022-10-23T16:09:00.602Z,19.30
2022-10-23T16:11:32.923Z,19.30
2022-10-23T16:14:01.547Z,19.20
2022-10-23T16:16:31.842Z,19.10
2022-10-23T16:19:00.294Z,19.20
2022-10-23T16:21:30.624Z,19.20
2022-10-23T16:24:00.291Z,19.20
2022-10-23T16:26:30.726Z,19.20
2022-10-23T16:29:00.579Z,19.20
2022-10-23T16:31:29.562Z,19.20
2022-10-23T16:33:59.070Z,19.20
2022-10-23T16:36:27.039Z,19.20
2022-10-23T16:39:20.000Z,19.20
2022-10-23T16:42:08.227Z,19.20
2022-10-23T16:44:49.434Z,19.20
2022-10-23T16:47:17.190Z,19.30
2022-10-23T16:49:45.200Z,19.20
2022-10-23T16:52:12.987Z,19.30
2022-10-23T16:54:40.850Z,19.20
2022-10-23T16:57:09.939Z,19.20
2022-10-23T16:59:37.733Z,19.20
2022-10-23T17:02:05.825Z,19.20
2022-10-23T17:04:33.661Z,19.20
2022-10-23T17:07:01.446Z,19.30
2022-10-23T17:09:31.158Z,19.30
2022-10-23T17:11:59.846Z,19.30
2022-10-23T17:14:29.860Z,19.40
2022-10-23T17:17:00.996Z,19.50
2022-10-23T17:19:44.645Z,19.50
2022-10-23T17:22:14.024Z,19.50
2022-10-23T17:24:45.183Z,19.40
2022-10-23T17:27:15.412Z,19.50
2022-10-23T17:29:44.647Z,19.60
2022-10-23T17:32:12.435Z,19.60
2022-10-23T17:34:40.217Z,19.60
2022-10-23T17:37:08.880Z,19.70
2022-10-23T17:39:36.885Z,19.70
2022-10-23T17:42:04.875Z,19.60
2022-10-23T17:44:32.652Z,19.70
2022-10-23T17:47:01.771Z,19.60
2022-10-23T17:49:29.548Z,19.60
2022-10-23T17:51:58.912Z,19.60
2022-10-23T17:54:27.777Z,19.60
2022-10-23T17:56:55.719Z,19.60
2022-10-23T17:59:23.932Z,19.50
2022-10-23T18:01:51.902Z,19.40
2022-10-23T18:04:24.270Z,19.30
2022-10-23T18:06:54.205Z,19.30
2022-10-23T18:09:23.578Z,19.20
2022-10-23T18:11:51.601Z,19.10
2022-10-23T18:14:21.391Z,19.10
2022-10-23T18:16:49.580Z,19.10
2022-10-23T18:19:18.978Z,19.10
2022-10-23T18:21:48.846Z,19.10
2022-10-23T18:24:17.059Z,19.00
2022-10-23T18:26:45.909Z,19.00
2022-10-23T18:29:14.600Z,19.00
2022-10-23T18:31:42.736Z,19.00
2022-10-23T18:34:15.298Z,19.00
2022-10-23T18:36:43.154Z,18.90
2022-10-23T18:39:15.435Z,18.90
2022-10-23T18:41:45.551Z,18.90
2022-10-23T18:44:16.071Z,18.90
2022-10-23T18:46:44.389Z,18.80
2022-10-23T18:49:12.477Z,18.80
2022-10-23T18:51:40.356Z,18.80
2022-10-23T18:54:13.011Z,18.80
2022-10-23T18:56:40.997Z,18.80
2022-10-23T18:59:12.276Z,18.80
2022-10-23T19:01:40.263Z,18.80
2022-10-23T19:04:08.379Z,18.80
2022-10-23T19:06:37.196Z,18.80
2022-10-23T19:09:08.264Z,18.80
2022-10-23T19:11:37.861Z,18.80
2022-10-23T19:14:06.127Z,18.70
2022-10-23T19:16:38.191Z,18.70
2022-10-23T19:19:19.357Z,18.70
2022-10-23T19:21:48.175Z,18.70
2022-10-23T19:24:19.864Z,18.70
2022-10-23T19:26:49.990Z,18.60
2022-10-23T19:29:21.437Z,18.60
2022-10-23T19:31:50.008Z,18.50
2022-10-23T19:34:19.827Z,18.60
2022-10-23T19:36:48.185Z,18.50
2022-10-23T19:39:16.378Z,18.50
2022-10-23T19:41:44.468Z,18.50
2022-10-23T19:44:14.854Z,18.50
2022-10-23T19:46:42.656Z,18.50
2022-10-23T19:49:11.183Z,18.50
2022-10-23T19:51:39.361Z,18.50
2022-10-23T19:54:07.845Z,18.40
2022-10-23T19:56:37.326Z,18.50
2022-10-23T19:59:05.375Z,18.40
2022-10-23T20:01:35.604Z,18.50
2022-10-23T20:04:03.414Z,18.50
2022-10-23T20:06:34.472Z,18.50
2022-10-23T20:09:04.754Z,18.50
2022-10-23T20:11:32.903Z,18.40
2022-10-23T20:14:00.777Z,18.40
2022-10-23T20:16:30.803Z,18.40
2022-10-23T20:19:01.889Z,18.40
2022-10-23T20:21:30.111Z,18.40
2022-10-23T20:23:58.698Z,18.40
2022-10-23T20:26:26.568Z,18.40
2022-10-23T20:28:56.656Z,18.40
2022-10-23T20:31:26.067Z,18.40
2022-10-23T20:33:54.143Z,18.40
2022-10-23T20:36:27.871Z,18.40
2022-10-23T20:38:56.558Z,18.40
2022-10-23T20:41:26.931Z,18.40
2022-10-23T20:43:56.466Z,18.40
2022-10-23T20:46:24.552Z,18.40
2022-10-23T20:48:52.347Z,18.40
2022-10-23T20:51:21.798Z,18.40
2022-10-23T20:53:51.695Z,18.40
2022-10-23T20:56:23.171Z,18.40
2022-10-23T20:58:51.108Z,18.30
2022-10-23T21:01:19.313Z,18.30
2022-10-23T21:03:50.946Z,18.30
2022-10-23T21:06:20.353Z,18.30
2022-10-23T21:08:48.299Z,18.30
2022-10-23T21:11:18.608Z,18.30
2022-10-23T21:13:46.396Z,18.40
2022-10-23T21:16:16.083Z,18.30
2022-10-23T21:18:46.470Z,18.40
2022-10-23T21:21:16.953Z,18.40
2022-10-23T21:23:44.841Z,18.50
2022-10-23T21:26:13.359Z,18.60
2022-10-23T21:28:50.899Z,18.70
2022-10-23T21:31:29.275Z,18.60
2022-10-23T21:33:57.296Z,18.60
2022-10-23T21:36:25.477Z,18.70
2022-10-23T21:38:54.770Z,18.70
2022-10-23T21:41:24.656Z,18.70
2022-10-23T21:43:55.419Z,18.60
2022-10-23T21:46:25.573Z,18.60
2022-10-23T21:48:53.701Z,18.70
2022-10-23T21:51:24.143Z,18.60
2022-10-23T21:53:53.104Z,18.70
2022-10-23T21:56:31.964Z,18.60
2022-10-23T21:59:03.102Z,18.60
2022-10-23T22:01:31.292Z,18.60
2022-10-23T22:03:59.509Z,18.60
2022-10-23T22:06:29.278Z,18.60
2022-10-23T22:08:58.840Z,18.60
2022-10-23T22:11:28.141Z,18.60
2022-10-23T22:13:56.501Z,18.60
2022-10-23T22:16:25.632Z,18.70
2022-10-23T22:18:53.655Z,18.60
2022-10-23T22:21:23.353Z,18.50
2022-10-23T22:23:51.886Z,18.60
2022-10-23T22:26:23.407Z,18.60
2022-10-23T22:28:51.962Z,18.50
2022-10-23T22:31:22.230Z,18.40
2022-10-23T22:33:52.548Z,18.40
2022-10-23T22:36:21.050Z,18.40
2022-10-23T22:38:48.927Z,18.50
2022-10-23T22:41:17.036Z,18.40
2022-10-23T22:43:45.076Z,18.40
2022-10-23T22:46:14.565Z,18.40
2022-10-23T22:48:42.598Z,18.30
2022-10-23T22:51:13.118Z,18.30
2022-10-23T22:53:41.137Z,18.30
2022-10-23T22:56:11.193Z,18.30
2022-10-23T22:58:39.024Z,18.30
2022-10-23T23:01:10.543Z,18.20
2022-10-23T23:03:39.227Z,18.20
2022-10-23T23:06:08.210Z,18.20
2022-10-23T23:08:38.920Z,18.20
2022-10-23T23:11:08.200Z,18.20
2022-10-23T23:13:36.202Z,18.20
2022-10-23T23:16:04.537Z,18.20
2022-10-23T23:18:33.152Z,18.20
2022-10-23T23:21:02.143Z,18.10
2022-10-23T23:23:30.043Z,18.10
2022-10-23T23:25:59.280Z,18.20
2022-10-23T23:28:27.064Z,18.30
2022-10-23T23:31:03.995Z,18.20
2022-10-23T23:33:31.795Z,18.20
2022-10-23T23:35:59.708Z,18.20
2022-10-23T23:38:28.012Z,18.20
2022-10-23T23:40:55.797Z,18.20
2022-10-23T23:43:24.906Z,18.20
2022-10-23T23:45:52.687Z,18.10
2022-10-23T23:48:20.452Z,18.20
2022-10-23T23:50:48.383Z,18.20
2022-10-23T23:53:16.188Z,18.20
2022-10-23T23:58:16.902Z,18.10
